sensor_id;sensor_type;location;lat;lon;timestamp;temperature;humidity
44565;DHT22;30275;51.822;-0.326;2023-03-01T00:01:36;4.80;99.90
44565;DHT22;30275;51.822;-0.326;2023-03-01T00:04:02;4.80;99.90
44565;DHT22;30275;51.822;-0.326;2023-03-01T00:06:27;4.80;99.90
44565;DHT22;30275;51.822;-0.326;2023-03-01T00:08:53;4.80;99.90
44565;DHT22;30275;51.822;-0.326;2023-03-01T00:11:25;4.70;99.90
44565;DHT22;30275;51.822;-0.326;2023-03-01T00:13:53;4.80;99.90
44565;DHT22;30275;51.822;-0.326;2023-03-01T00:16:24;4.80;99.90
44565;DHT22;30275;51.822;-0.326;2023-03-01T00:18:49;4.80;99.90
44565;DHT22;30275;51.822;-0.326;2023-03-01T00:21:16;4.80;99.90
44565;DHT22;30275;51.822;-0.326;2023-03-01T00:23:42;4.70;99.90
44565;DHT22;30275;51.822;-0.326;2023-03-01T00:26:11;4.80;99.90
44565;DHT22;30275;51.822;-0.326;2023-03-01T00:28:38;4.70;99.90
44565;DHT22;30275;51.822;-0.326;2023-03-01T00:31:11;4.70;99.90
44565;DHT22;30275;51.822;-0.326;2023-03-01T00:33:37;4.70;99.90
44565;DHT22;30275;51.822;-0.326;2023-03-01T00:36:03;4.70;99.90
44565;DHT22;30275;51.822;-0.326;2023-03-01T00:38:29;4.70;99.90
44565;DHT22;30275;51.822;-0.326;2023-03-01T00:40:55;4.70;99.90
44565;DHT22;30275;51.822;-0.326;2023-03-01T00:43:21;4.60;99.90
44565;DHT22;30275;51.822;-0.326;2023-03-01T00:45:49;4.70;99.90
44565;DHT22;30275;51.822;-0.326;2023-03-01T00:48:17;4.70;99.90
44565;DHT22;30275;51.822;-0.326;2023-03-01T00:50:46;4.70;99.90
44565;DHT22;30275;51.822;-0.326;2023-03-01T00:53:11;4.60;99.90
44565;DHT22;30275;51.822;-0.326;2023-03-01T00:55:37;4.60;99.90
44565;DHT22;30275;51.822;-0.326;2023-03-01T00:58:02;4.60;99.90
44565;DHT22;30275;51.822;-0.326;2023-03-01T01:00:28;4.60;99.90
44565;DHT22;30275;51.822;-0.326;2023-03-01T01:02:54;4.50;99.90
44565;DHT22;30275;51.822;-0.326;2023-03-01T01:05:19;4.50;99.90
44565;DHT22;30275;51.822;-0.326;2023-03-01T01:07:46;4.50;99.90
44565;DHT22;30275;51.822;-0.326;2023-03-01T01:10:12;4.50;99.90
44565;DHT22;30275;51.822;-0.326;2023-03-01T01:12:43;4.50;99.90
44565;DHT22;30275;51.822;-0.326;2023-03-01T01:15:09;4.50;99.90
44565;DHT22;30275;51.822;-0.326;2023-03-01T01:17:37;4.50;99.90
44565;DHT22;30275;51.822;-0.326;2023-03-01T01:20:03;4.40;99.90
44565;DHT22;30275;51.822;-0.326;2023-03-01T01:22:29;4.50;99.90
44565;DHT22;30275;51.822;-0.326;2023-03-01T01:24:54;4.60;99.90
44565;DHT22;30275;51.822;-0.326;2023-03-01T01:27:20;4.60;99.90
44565;DHT22;30275;51.822;-0.326;2023-03-01T01:29:46;4.50;99.90
44565;DHT22;30275;51.822;-0.326;2023-03-01T01:32:11;4.50;99.90
44565;DHT22;30275;51.822;-0.326;2023-03-01T01:34:37;4.50;99.90
44565;DHT22;30275;51.822;-0.326;2023-03-01T01:37:02;4.60;99.90
44565;DHT22;30275;51.822;-0.326;2023-03-01T01:39:28;4.70;99.90
44565;DHT22;30275;51.822;-0.326;2023-03-01T01:41:54;4.60;99.90
44565;DHT22;30275;51.822;-0.326;2023-03-01T01:44:26;4.60;99.90
44565;DHT22;30275;51.822;-0.326;2023-03-01T01:47:05;4.50;99.90
44565;DHT22;30275;51.822;-0.326;2023-03-01T01:49:53;4.50;99.90
44565;DHT22;30275;51.822;-0.326;2023-03-01T01:52:35;4.50;99.90
44565;DHT22;30275;51.822;-0.326;2023-03-01T01:55:16;4.60;99.90
44565;DHT22;30275;51.822;-0.326;2023-03-01T01:57:50;4.50;99.90
44565;DHT22;30275;51.822;-0.326;2023-03-01T02:00:20;4.50;99.90
44565;DHT22;30275;51.822;-0.326;2023-03-01T02:02:48;4.60;99.90
44565;DHT22;30275;51.822;-0.326;2023-03-01T02:05:49;4.60;99.90
44565;DHT22;30275;51.822;-0.326;2023-03-01T02:08:18;4.60;99.90
44565;DHT22;30275;51.822;-0.326;2023-03-01T02:10:45;4.50;99.90
44565;DHT22;30275;51.822;-0.326;2023-03-01T02:13:11;4.60;99.90
44565;DHT22;30275;51.822;-0.326;2023-03-01T02:15:38;4.50;99.90
44565;DHT22;30275;51.822;-0.326;2023-03-01T02:18:05;4.50;99.90
44565;DHT22;30275;51.822;-0.326;2023-03-01T02:20:44;4.50;99.90
44565;DHT22;30275;51.822;-0.326;2023-03-01T02:23:13;4.40;99.90
44565;DHT22;30275;51.822;-0.326;2023-03-01T02:26:14;4.50;99.90
44565;DHT22;30275;51.822;-0.326;2023-03-01T02:32:05;4.40;99.90
44565;DHT22;30275;51.822;-0.326;2023-03-01T02:34:31;4.30;99.90
44565;DHT22;30275;51.822;-0.326;2023-03-01T02:37:11;4.40;99.90
44565;DHT22;30275;51.822;-0.326;2023-03-01T02:39:43;4.30;99.90
44565;DHT22;30275;51.822;-0.326;2023-03-01T02:42:16;4.40;99.90
44565;DHT22;30275;51.822;-0.326;2023-03-01T02:44:44;4.50;99.90
44565;DHT22;30275;51.822;-0.326;2023-03-01T02:47:09;4.40;99.90
44565;DHT22;30275;51.822;-0.326;2023-03-01T02:49:36;4.40;99.90
44565;DHT22;30275;51.822;-0.326;2023-03-01T02:52:27;4.30;99.90
44565;DHT22;30275;51.822;-0.326;2023-03-01T02:55:08;4.30;99.90
44565;DHT22;30275;51.822;-0.326;2023-03-01T02:57:36;4.30;99.90
44565;DHT22;30275;51.822;-0.326;2023-03-01T03:00:15;4.40;99.90
44565;DHT22;30275;51.822;-0.326;2023-03-01T03:02:46;4.30;99.90
44565;DHT22;30275;51.822;-0.326;2023-03-01T03:05:17;4.30;99.90
44565;DHT22;30275;51.822;-0.326;2023-03-01T03:07:45;4.40;99.90
44565;DHT22;30275;51.822;-0.326;2023-03-01T03:10:25;4.30;99.90
44565;DHT22;30275;51.822;-0.326;2023-03-01T03:12:57;4.30;99.90
44565;DHT22;30275;51.822;-0.326;2023-03-01T03:15:23;4.40;99.90
44565;DHT22;30275;51.822;-0.326;2023-03-01T03:17:50;4.30;99.90
44565;DHT22;30275;51.822;-0.326;2023-03-01T03:20:18;4.40;99.90
44565;DHT22;30275;51.822;-0.326;2023-03-01T03:23:24;4.40;99.90
44565;DHT22;30275;51.822;-0.326;2023-03-01T03:25:50;4.40;99.90
44565;DHT22;30275;51.822;-0.326;2023-03-01T03:28:15;4.40;99.90
44565;DHT22;30275;51.822;-0.326;2023-03-01T03:30:42;4.40;99.90
44565;DHT22;30275;51.822;-0.326;2023-03-01T03:33:09;4.40;99.90
44565;DHT22;30275;51.822;-0.326;2023-03-01T03:35:43;4.30;99.90
44565;DHT22;30275;51.822;-0.326;2023-03-01T03:38:12;4.40;99.90
44565;DHT22;30275;51.822;-0.326;2023-03-01T03:40:44;4.30;99.90
44565;DHT22;30275;51.822;-0.326;2023-03-01T03:43:13;4.40;99.90
44565;DHT22;30275;51.822;-0.326;2023-03-01T03:45:39;4.40;99.90
44565;DHT22;30275;51.822;-0.326;2023-03-01T03:48:07;4.40;99.90
44565;DHT22;30275;51.822;-0.326;2023-03-01T03:50:33;4.50;99.90
44565;DHT22;30275;51.822;-0.326;2023-03-01T03:53:04;4.40;99.90
44565;DHT22;30275;51.822;-0.326;2023-03-01T03:55:30;4.40;99.90
44565;DHT22;30275;51.822;-0.326;2023-03-01T03:58:00;4.30;99.90
44565;DHT22;30275;51.822;-0.326;2023-03-01T04:00:33;4.30;99.90
44565;DHT22;30275;51.822;-0.326;2023-03-01T04:02:59;4.30;99.90
44565;DHT22;30275;51.822;-0.326;2023-03-01T04:05:26;4.30;99.90
44565;DHT22;30275;51.822;-0.326;2023-03-01T04:07:52;4.30;99.90
44565;DHT22;30275;51.822;-0.326;2023-03-01T04:10:43;4.30;99.90
44565;DHT22;30275;51.822;-0.326;2023-03-01T04:13:12;4.30;99.90
44565;DHT22;30275;51.822;-0.326;2023-03-01T04:15:38;4.40;99.90
44565;DHT22;30275;51.822;-0.326;2023-03-01T04:18:04;4.40;99.90
44565;DHT22;30275;51.822;-0.326;2023-03-01T04:20:33;4.40;99.90
44565;DHT22;30275;51.822;-0.326;2023-03-01T04:23:05;4.40;99.90
44565;DHT22;30275;51.822;-0.326;2023-03-01T04:25:45;4.50;99.90
44565;DHT22;30275;51.822;-0.326;2023-03-01T04:28:11;4.40;99.90
44565;DHT22;30275;51.822;-0.326;2023-03-01T04:30:38;4.30;99.90
44565;DHT22;30275;51.822;-0.326;2023-03-01T04:33:08;4.30;99.90
44565;DHT22;30275;51.822;-0.326;2023-03-01T04:35:36;4.40;99.90
44565;DHT22;30275;51.822;-0.326;2023-03-01T04:38:02;4.40;99.90
44565;DHT22;30275;51.822;-0.326;2023-03-01T04:40:27;4.40;99.90
44565;DHT22;30275;51.822;-0.326;2023-03-01T04:42:53;4.30;99.90
44565;DHT22;30275;51.822;-0.326;2023-03-01T04:45:19;4.30;99.90
44565;DHT22;30275;51.822;-0.326;2023-03-01T04:47:46;4.30;99.90
44565;DHT22;30275;51.822;-0.326;2023-03-01T04:50:17;4.30;99.90
44565;DHT22;30275;51.822;-0.326;2023-03-01T04:52:46;4.40;99.90
44565;DHT22;30275;51.822;-0.326;2023-03-01T04:55:12;4.40;99.90
44565;DHT22;30275;51.822;-0.326;2023-03-01T04:57:38;4.30;99.90
44565;DHT22;30275;51.822;-0.326;2023-03-01T05:00:07;4.20;99.90
44565;DHT22;30275;51.822;-0.326;2023-03-01T05:02:53;4.30;99.90
44565;DHT22;30275;51.822;-0.326;2023-03-01T05:05:39;4.20;99.90
44565;DHT22;30275;51.822;-0.326;2023-03-01T05:08:07;4.10;99.90
44565;DHT22;30275;51.822;-0.326;2023-03-01T05:10:35;4.00;99.90
44565;DHT22;30275;51.822;-0.326;2023-03-01T05:13:02;4.00;99.90
44565;DHT22;30275;51.822;-0.326;2023-03-01T05:15:30;3.90;99.90
44565;DHT22;30275;51.822;-0.326;2023-03-01T05:17:58;4.00;99.90
44565;DHT22;30275;51.822;-0.326;2023-03-01T05:20:28;3.90;99.90
44565;DHT22;30275;51.822;-0.326;2023-03-01T05:22:59;3.80;99.90
44565;DHT22;30275;51.822;-0.326;2023-03-01T05:25:25;3.70;99.90
44565;DHT22;30275;51.822;-0.326;2023-03-01T05:27:51;3.60;99.90
44565;DHT22;30275;51.822;-0.326;2023-03-01T05:30:17;3.50;99.90
44565;DHT22;30275;51.822;-0.326;2023-03-01T05:32:48;3.50;99.90
44565;DHT22;30275;51.822;-0.326;2023-03-01T05:35:16;3.60;99.90
44565;DHT22;30275;51.822;-0.326;2023-03-01T05:37:43;3.60;99.90
44565;DHT22;30275;51.822;-0.326;2023-03-01T05:40:15;3.70;99.90
44565;DHT22;30275;51.822;-0.326;2023-03-01T05:42:49;3.70;99.90
44565;DHT22;30275;51.822;-0.326;2023-03-01T05:45:17;3.70;99.90
44565;DHT22;30275;51.822;-0.326;2023-03-01T05:47:44;3.60;99.90
44565;DHT22;30275;51.822;-0.326;2023-03-01T05:50:14;3.50;99.90
44565;DHT22;30275;51.822;-0.326;2023-03-01T05:52:48;3.40;99.90
44565;DHT22;30275;51.822;-0.326;2023-03-01T05:55:19;3.30;99.90
44565;DHT22;30275;51.822;-0.326;2023-03-01T05:57:45;3.20;99.90
44565;DHT22;30275;51.822;-0.326;2023-03-01T06:00:12;3.20;99.90
44565;DHT22;30275;51.822;-0.326;2023-03-01T06:02:39;3.20;99.90
44565;DHT22;30275;51.822;-0.326;2023-03-01T06:05:07;3.00;99.90
44565;DHT22;30275;51.822;-0.326;2023-03-01T06:07:33;3.00;99.90
44565;DHT22;30275;51.822;-0.326;2023-03-01T06:09:58;3.00;99.90
44565;DHT22;30275;51.822;-0.326;2023-03-01T06:12:24;2.90;99.90
44565;DHT22;30275;51.822;-0.326;2023-03-01T06:14:49;2.90;99.90
44565;DHT22;30275;51.822;-0.326;2023-03-01T06:17:15;2.80;99.90
44565;DHT22;30275;51.822;-0.326;2023-03-01T06:19:41;2.90;99.90
44565;DHT22;30275;51.822;-0.326;2023-03-01T06:22:06;3.10;99.90
44565;DHT22;30275;51.822;-0.326;2023-03-01T06:24:32;3.20;99.90
44565;DHT22;30275;51.822;-0.326;2023-03-01T06:26:58;3.20;99.90
44565;DHT22;30275;51.822;-0.326;2023-03-01T06:29:24;3.30;99.90
44565;DHT22;30275;51.822;-0.326;2023-03-01T06:31:49;3.30;99.90
44565;DHT22;30275;51.822;-0.326;2023-03-01T06:34:15;3.30;99.90
44565;DHT22;30275;51.822;-0.326;2023-03-01T06:36:40;3.30;99.90
44565;DHT22;30275;51.822;-0.326;2023-03-01T06:39:06;3.40;99.90
44565;DHT22;30275;51.822;-0.326;2023-03-01T06:41:32;3.40;99.90
44565;DHT22;30275;51.822;-0.326;2023-03-01T06:43:59;3.40;99.90
44565;DHT22;30275;51.822;-0.326;2023-03-01T06:46:24;3.40;99.90
44565;DHT22;30275;51.822;-0.326;2023-03-01T06:48:50;3.40;99.90
44565;DHT22;30275;51.822;-0.326;2023-03-01T06:51:16;3.50;99.90
44565;DHT22;30275;51.822;-0.326;2023-03-01T06:53:41;3.50;99.90
44565;DHT22;30275;51.822;-0.326;2023-03-01T06:56:07;3.60;99.90
44565;DHT22;30275;51.822;-0.326;2023-03-01T06:58:32;3.70;99.90
44565;DHT22;30275;51.822;-0.326;2023-03-01T07:00:59;3.70;99.90
44565;DHT22;30275;51.822;-0.326;2023-03-01T07:03:24;3.80;99.90
44565;DHT22;30275;51.822;-0.326;2023-03-01T07:05:51;3.80;99.90
44565;DHT22;30275;51.822;-0.326;2023-03-01T07:08:19;3.80;99.90
44565;DHT22;30275;51.822;-0.326;2023-03-01T07:10:45;3.80;99.90
44565;DHT22;30275;51.822;-0.326;2023-03-01T07:13:10;3.80;99.90
44565;DHT22;30275;51.822;-0.326;2023-03-01T07:15:36;3.90;99.90
44565;DHT22;30275;51.822;-0.326;2023-03-01T07:18:02;4.00;99.90
44565;DHT22;30275;51.822;-0.326;2023-03-01T07:20:27;4.00;99.90
44565;DHT22;30275;51.822;-0.326;2023-03-01T07:22:54;4.00;99.90
44565;DHT22;30275;51.822;-0.326;2023-03-01T07:25:20;4.10;99.90
44565;DHT22;30275;51.822;-0.326;2023-03-01T07:27:50;4.20;99.90
44565;DHT22;30275;51.822;-0.326;2023-03-01T07:30:16;4.20;99.90
44565;DHT22;30275;51.822;-0.326;2023-03-01T07:32:42;4.30;99.90
44565;DHT22;30275;51.822;-0.326;2023-03-01T07:35:08;4.30;99.90
44565;DHT22;30275;51.822;-0.326;2023-03-01T07:37:33;4.40;99.90
44565;DHT22;30275;51.822;-0.326;2023-03-01T07:39:59;4.50;99.90
44565;DHT22;30275;51.822;-0.326;2023-03-01T07:42:24;4.70;99.90
44565;DHT22;30275;51.822;-0.326;2023-03-01T07:44:50;4.60;99.90
44565;DHT22;30275;51.822;-0.326;2023-03-01T07:47:15;4.70;99.90
44565;DHT22;30275;51.822;-0.326;2023-03-01T07:49:41;4.80;99.90
44565;DHT22;30275;51.822;-0.326;2023-03-01T07:52:09;4.70;99.90
44565;DHT22;30275;51.822;-0.326;2023-03-01T07:54:34;4.70;99.90
44565;DHT22;30275;51.822;-0.326;2023-03-01T07:57:00;4.80;99.90
44565;DHT22;30275;51.822;-0.326;2023-03-01T07:59:26;4.70;99.90
44565;DHT22;30275;51.822;-0.326;2023-03-01T08:01:55;4.60;99.90
44565;DHT22;30275;51.822;-0.326;2023-03-01T08:04:21;4.60;99.90
44565;DHT22;30275;51.822;-0.326;2023-03-01T08:06:46;4.70;99.90
44565;DHT22;30275;51.822;-0.326;2023-03-01T08:09:12;4.90;99.90
44565;DHT22;30275;51.822;-0.326;2023-03-01T08:11:38;5.00;99.90
44565;DHT22;30275;51.822;-0.326;2023-03-01T08:14:03;5.00;99.90
44565;DHT22;30275;51.822;-0.326;2023-03-01T08:16:29;4.90;99.90
44565;DHT22;30275;51.822;-0.326;2023-03-01T08:18:55;5.00;99.90
44565;DHT22;30275;51.822;-0.326;2023-03-01T08:21:22;4.90;99.90
44565;DHT22;30275;51.822;-0.326;2023-03-01T08:23:48;4.80;99.90
44565;DHT22;30275;51.822;-0.326;2023-03-01T08:26:18;4.80;99.90
44565;DHT22;30275;51.822;-0.326;2023-03-01T08:28:45;4.80;99.90
44565;DHT22;30275;51.822;-0.326;2023-03-01T08:31:22;4.90;99.90
44565;DHT22;30275;51.822;-0.326;2023-03-01T08:33:54;5.00;99.90
44565;DHT22;30275;51.822;-0.326;2023-03-01T08:36:24;5.20;99.90
44565;DHT22;30275;51.822;-0.326;2023-03-01T08:38:51;5.30;99.90
44565;DHT22;30275;51.822;-0.326;2023-03-01T08:41:16;5.20;99.90
44565;DHT22;30275;51.822;-0.326;2023-03-01T08:43:42;5.30;99.90
44565;DHT22;30275;51.822;-0.326;2023-03-01T08:46:08;5.20;99.90
44565;DHT22;30275;51.822;-0.326;2023-03-01T08:48:34;5.30;99.90
44565;DHT22;30275;51.822;-0.326;2023-03-01T08:51:13;5.20;99.90
44565;DHT22;30275;51.822;-0.326;2023-03-01T08:53:39;5.10;99.90
44565;DHT22;30275;51.822;-0.326;2023-03-01T08:56:05;5.20;99.90
44565;DHT22;30275;51.822;-0.326;2023-03-01T08:58:32;6.00;99.90
44565;DHT22;30275;51.822;-0.326;2023-03-01T09:00:57;7.90;99.90
44565;DHT22;30275;51.822;-0.326;2023-03-01T09:03:24;9.80;99.90
44565;DHT22;30275;51.822;-0.326;2023-03-01T09:05:50;10.10;99.90
44565;DHT22;30275;51.822;-0.326;2023-03-01T09:08:17;9.60;99.90
44565;DHT22;30275;51.822;-0.326;2023-03-01T09:10:43;9.30;99.90
44565;DHT22;30275;51.822;-0.326;2023-03-01T09:13:09;8.20;99.90
44565;DHT22;30275;51.822;-0.326;2023-03-01T09:15:37;7.60;99.90
44565;DHT22;30275;51.822;-0.326;2023-03-01T09:18:03;7.00;99.90
44565;DHT22;30275;51.822;-0.326;2023-03-01T09:20:30;6.80;99.90
44565;DHT22;30275;51.822;-0.326;2023-03-01T09:22:56;7.20;99.90
44565;DHT22;30275;51.822;-0.326;2023-03-01T09:25:22;8.50;99.90
44565;DHT22;30275;51.822;-0.326;2023-03-01T09:27:51;9.50;99.90
44565;DHT22;30275;51.822;-0.326;2023-03-01T09:30:17;10.30;99.90
44565;DHT22;30275;51.822;-0.326;2023-03-01T09:32:42;9.70;99.90
44565;DHT22;30275;51.822;-0.326;2023-03-01T09:35:10;8.90;99.90
44565;DHT22;30275;51.822;-0.326;2023-03-01T09:37:36;7.90;99.90
44565;DHT22;30275;51.822;-0.326;2023-03-01T09:40:17;7.30;99.90
44565;DHT22;30275;51.822;-0.326;2023-03-01T09:43:01;6.70;99.90
44565;DHT22;30275;51.822;-0.326;2023-03-01T09:45:35;6.70;99.90
44565;DHT22;30275;51.822;-0.326;2023-03-01T09:48:01;6.60;99.90
44565;DHT22;30275;51.822;-0.326;2023-03-01T09:50:33;6.50;99.90
44565;DHT22;30275;51.822;-0.326;2023-03-01T09:53:12;6.40;99.90
44565;DHT22;30275;51.822;-0.326;2023-03-01T09:55:45;6.40;99.90
44565;DHT22;30275;51.822;-0.326;2023-03-01T10:01:30;6.70;99.90
44565;DHT22;30275;51.822;-0.326;2023-03-01T10:06:50;6.40;99.90
44565;DHT22;30275;51.822;-0.326;2023-03-01T10:09:17;6.20;99.90
44565;DHT22;30275;51.822;-0.326;2023-03-01T10:11:51;6.20;99.90
44565;DHT22;30275;51.822;-0.326;2023-03-01T10:14:28;6.10;99.90
44565;DHT22;30275;51.822;-0.326;2023-03-01T10:17:09;6.20;99.90
44565;DHT22;30275;51.822;-0.326;2023-03-01T10:19:44;6.30;99.90
44565;DHT22;30275;51.822;-0.326;2023-03-01T10:22:17;6.40;99.90
44565;DHT22;30275;51.822;-0.326;2023-03-01T10:24:44;6.40;99.90
44565;DHT22;30275;51.822;-0.326;2023-03-01T10:27:23;6.50;99.90
44565;DHT22;30275;51.822;-0.326;2023-03-01T10:32:34;6.80;99.90
44565;DHT22;30275;51.822;-0.326;2023-03-01T10:34:59;7.40;99.90
44565;DHT22;30275;51.822;-0.326;2023-03-01T10:37:25;7.70;99.90
44565;DHT22;30275;51.822;-0.326;2023-03-01T10:42:29;8.10;99.90
44565;DHT22;30275;51.822;-0.326;2023-03-01T10:44:55;9.20;99.90
44565;DHT22;30275;51.822;-0.326;2023-03-01T10:47:24;9.50;99.90
44565;DHT22;30275;51.822;-0.326;2023-03-01T10:50:01;9.70;99.90
44565;DHT22;30275;51.822;-0.326;2023-03-01T10:52:31;9.60;99.90
44565;DHT22;30275;51.822;-0.326;2023-03-01T10:57:34;8.40;99.90
44565;DHT22;30275;51.822;-0.326;2023-03-01T11:02:42;7.80;99.90
44565;DHT22;30275;51.822;-0.326;2023-03-01T11:08:06;7.30;99.90
44565;DHT22;30275;51.822;-0.326;2023-03-01T11:10:34;7.00;99.90
44565;DHT22;30275;51.822;-0.326;2023-03-01T11:13:18;6.80;99.90
44565;DHT22;30275;51.822;-0.326;2023-03-01T11:16:03;6.80;99.90
44565;DHT22;30275;51.822;-0.326;2023-03-01T11:18:30;6.60;99.90
44565;DHT22;30275;51.822;-0.326;2023-03-01T11:20:58;6.40;99.90
44565;DHT22;30275;51.822;-0.326;2023-03-01T11:23:25;6.40;99.90
44565;DHT22;30275;51.822;-0.326;2023-03-01T11:26:01;6.60;99.90
44565;DHT22;30275;51.822;-0.326;2023-03-01T11:28:29;7.10;99.90
44565;DHT22;30275;51.822;-0.326;2023-03-01T11:31:00;7.60;99.90
44565;DHT22;30275;51.822;-0.326;2023-03-01T11:33:46;8.30;99.90
44565;DHT22;30275;51.822;-0.326;2023-03-01T11:38:55;13.40;99.90
44565;DHT22;30275;51.822;-0.326;2023-03-01T11:41:26;12.60;99.90
44565;DHT22;30275;51.822;-0.326;2023-03-01T11:44:03;11.40;99.90
44565;DHT22;30275;51.822;-0.326;2023-03-01T11:46:52;10.20;99.90
44565;DHT22;30275;51.822;-0.326;2023-03-01T11:49:51;9.70;99.90
44565;DHT22;30275;51.822;-0.326;2023-03-01T12:00:44;8.10;99.90
44565;DHT22;30275;51.822;-0.326;2023-03-01T12:03:27;7.90;99.90
44565;DHT22;30275;51.822;-0.326;2023-03-01T12:35:16;10.40;99.90
44565;DHT22;30275;51.822;-0.326;2023-03-01T12:40:23;9.20;99.90
44565;DHT22;30275;51.822;-0.326;2023-03-01T12:43:22;8.70;99.90
44565;DHT22;30275;51.822;-0.326;2023-03-01T12:48:47;8.00;99.90
44565;DHT22;30275;51.822;-0.326;2023-03-01T12:51:19;7.90;99.90
44565;DHT22;30275;51.822;-0.326;2023-03-01T12:53:51;7.60;99.90
44565;DHT22;30275;51.822;-0.326;2023-03-01T12:56:22;7.70;99.90
44565;DHT22;30275;51.822;-0.326;2023-03-01T13:02:16;7.60;99.90
44565;DHT22;30275;51.822;-0.326;2023-03-01T13:17:49;7.00;99.90
44565;DHT22;30275;51.822;-0.326;2023-03-01T13:20:20;7.10;99.90
44565;DHT22;30275;51.822;-0.326;2023-03-01T13:22:47;7.10;99.90
44565;DHT22;30275;51.822;-0.326;2023-03-01T13:25:24;7.10;99.90
44565;DHT22;30275;51.822;-0.326;2023-03-01T13:27:50;7.10;99.90
44565;DHT22;30275;51.822;-0.326;2023-03-01T13:30:40;7.20;99.90
44565;DHT22;30275;51.822;-0.326;2023-03-01T13:35:50;7.10;99.90
44565;DHT22;30275;51.822;-0.326;2023-03-01T13:41:05;7.30;99.90
44565;DHT22;30275;51.822;-0.326;2023-03-01T13:43:57;7.50;99.90
44565;DHT22;30275;51.822;-0.326;2023-03-01T13:46:24;7.60;99.90
44565;DHT22;30275;51.822;-0.326;2023-03-01T13:48:55;7.80;99.90
44565;DHT22;30275;51.822;-0.326;2023-03-01T13:51:25;7.80;99.90
44565;DHT22;30275;51.822;-0.326;2023-03-01T13:53:51;7.80;99.90
44565;DHT22;30275;51.822;-0.326;2023-03-01T13:56:29;7.80;99.90
44565;DHT22;30275;51.822;-0.326;2023-03-01T13:59:05;8.00;99.90
44565;DHT22;30275;51.822;-0.326;2023-03-01T14:01:34;8.30;99.90
44565;DHT22;30275;51.822;-0.326;2023-03-01T14:04:01;8.50;99.90
44565;DHT22;30275;51.822;-0.326;2023-03-01T14:06:32;8.60;99.90
44565;DHT22;30275;51.822;-0.326;2023-03-01T14:09:24;8.70;99.90
44565;DHT22;30275;51.822;-0.326;2023-03-01T14:17:46;7.80;99.90
44565;DHT22;30275;51.822;-0.326;2023-03-01T14:20:19;7.70;99.90
44565;DHT22;30275;51.822;-0.326;2023-03-01T14:22:46;7.50;99.90
44565;DHT22;30275;51.822;-0.326;2023-03-01T14:25:34;7.50;99.90
44565;DHT22;30275;51.822;-0.326;2023-03-01T14:28:04;7.40;99.90
44565;DHT22;30275;51.822;-0.326;2023-03-01T14:30:38;7.40;99.90
44565;DHT22;30275;51.822;-0.326;2023-03-01T14:33:34;7.40;99.90
44565;DHT22;30275;51.822;-0.326;2023-03-01T14:36:06;7.50;99.90
44565;DHT22;30275;51.822;-0.326;2023-03-01T14:38:41;7.60;99.90
44565;DHT22;30275;51.822;-0.326;2023-03-01T14:41:27;7.70;99.90
44565;DHT22;30275;51.822;-0.326;2023-03-01T14:44:06;7.80;99.90
44565;DHT22;30275;51.822;-0.326;2023-03-01T14:46:40;7.80;99.90
44565;DHT22;30275;51.822;-0.326;2023-03-01T14:51:37;7.40;99.90
44565;DHT22;30275;51.822;-0.326;2023-03-01T14:54:05;7.20;99.90
44565;DHT22;30275;51.822;-0.326;2023-03-01T14:56:45;7.20;99.90
44565;DHT22;30275;51.822;-0.326;2023-03-01T14:59:11;7.20;99.90
44565;DHT22;30275;51.822;-0.326;2023-03-01T15:01:37;7.30;99.90
44565;DHT22;30275;51.822;-0.326;2023-03-01T15:04:02;7.40;99.90
44565;DHT22;30275;51.822;-0.326;2023-03-01T15:06:28;7.50;99.90
44565;DHT22;30275;51.822;-0.326;2023-03-01T15:08:55;7.50;99.90
44565;DHT22;30275;51.822;-0.326;2023-03-01T15:11:32;7.40;99.90
44565;DHT22;30275;51.822;-0.326;2023-03-01T15:13:59;7.50;99.90
44565;DHT22;30275;51.822;-0.326;2023-03-01T15:16:27;7.90;99.90
44565;DHT22;30275;51.822;-0.326;2023-03-01T15:19:00;8.30;99.90
44565;DHT22;30275;51.822;-0.326;2023-03-01T15:27:12;8.40;99.90
44565;DHT22;30275;51.822;-0.326;2023-03-01T15:29:33;8.20;99.90
44565;DHT22;30275;51.822;-0.326;2023-03-01T15:32:06;8.20;99.90
44565;DHT22;30275;51.822;-0.326;2023-03-01T15:34:47;7.90;99.90
44565;DHT22;30275;51.822;-0.326;2023-03-01T15:37:44;7.80;99.90
44565;DHT22;30275;51.822;-0.326;2023-03-01T15:40:28;7.70;99.90
44565;DHT22;30275;51.822;-0.326;2023-03-01T15:45:27;7.50;99.90
44565;DHT22;30275;51.822;-0.326;2023-03-01T15:47:55;7.40;99.90
44565;DHT22;30275;51.822;-0.326;2023-03-01T15:50:28;7.50;99.90
44565;DHT22;30275;51.822;-0.326;2023-03-01T15:52:55;7.70;99.90
44565;DHT22;30275;51.822;-0.326;2023-03-01T15:55:29;7.80;99.90
44565;DHT22;30275;51.822;-0.326;2023-03-01T15:58:15;8.10;99.90
44565;DHT22;30275;51.822;-0.326;2023-03-01T16:00:42;8.40;99.90
44565;DHT22;30275;51.822;-0.326;2023-03-01T16:03:10;8.60;99.90
44565;DHT22;30275;51.822;-0.326;2023-03-01T16:05:37;8.10;99.90
44565;DHT22;30275;51.822;-0.326;2023-03-01T16:08:04;8.00;99.90
44565;DHT22;30275;51.822;-0.326;2023-03-01T16:10:35;8.00;99.90
44565;DHT22;30275;51.822;-0.326;2023-03-01T16:13:01;7.70;99.90
44565;DHT22;30275;51.822;-0.326;2023-03-01T16:15:31;7.70;99.90
44565;DHT22;30275;51.822;-0.326;2023-03-01T16:17:57;7.60;99.90
44565;DHT22;30275;51.822;-0.326;2023-03-01T16:20:24;7.40;99.90
44565;DHT22;30275;51.822;-0.326;2023-03-01T16:22:50;7.20;99.90
44565;DHT22;30275;51.822;-0.326;2023-03-01T16:25:18;7.10;99.90
44565;DHT22;30275;51.822;-0.326;2023-03-01T16:27:46;7.10;99.90
44565;DHT22;30275;51.822;-0.326;2023-03-01T16:30:13;7.00;99.90
44565;DHT22;30275;51.822;-0.326;2023-03-01T16:32:44;7.10;99.90
44565;DHT22;30275;51.822;-0.326;2023-03-01T16:35:11;7.10;99.90
44565;DHT22;30275;51.822;-0.326;2023-03-01T16:37:38;6.90;99.90
44565;DHT22;30275;51.822;-0.326;2023-03-01T16:40:05;6.80;99.90
44565;DHT22;30275;51.822;-0.326;2023-03-01T16:42:35;6.70;99.90
44565;DHT22;30275;51.822;-0.326;2023-03-01T16:45:02;6.70;99.90
44565;DHT22;30275;51.822;-0.326;2023-03-01T16:47:28;6.60;99.90
44565;DHT22;30275;51.822;-0.326;2023-03-01T16:49:54;6.50;99.90
44565;DHT22;30275;51.822;-0.326;2023-03-01T16:52:21;6.30;99.90
44565;DHT22;30275;51.822;-0.326;2023-03-01T16:54:46;6.30;99.90
44565;DHT22;30275;51.822;-0.326;2023-03-01T16:57:12;6.20;99.90
44565;DHT22;30275;51.822;-0.326;2023-03-01T16:59:37;6.10;99.90
44565;DHT22;30275;51.822;-0.326;2023-03-01T17:02:04;6.00;99.90
44565;DHT22;30275;51.822;-0.326;2023-03-01T17:04:31;5.80;99.90
44565;DHT22;30275;51.822;-0.326;2023-03-01T17:06:57;5.80;99.90
44565;DHT22;30275;51.822;-0.326;2023-03-01T17:09:23;5.70;99.90
44565;DHT22;30275;51.822;-0.326;2023-03-01T17:11:49;5.80;99.90
44565;DHT22;30275;51.822;-0.326;2023-03-01T17:14:15;5.80;99.90
44565;DHT22;30275;51.822;-0.326;2023-03-01T17:16:41;5.70;99.90
44565;DHT22;30275;51.822;-0.326;2023-03-01T17:19:07;5.70;99.90
44565;DHT22;30275;51.822;-0.326;2023-03-01T17:21:33;5.60;99.90
44565;DHT22;30275;51.822;-0.326;2023-03-01T17:23:59;5.70;99.90
44565;DHT22;30275;51.822;-0.326;2023-03-01T17:26:25;5.90;99.90
44565;DHT22;30275;51.822;-0.326;2023-03-01T17:28:50;5.90;99.90
44565;DHT22;30275;51.822;-0.326;2023-03-01T17:31:18;6.00;99.90
44565;DHT22;30275;51.822;-0.326;2023-03-01T17:33:44;5.90;99.90